CMA CGM Castilla — V7LZ7 — position and weather

sailwx.info

Track history (hours):
 
Tides and Currents Weather Stations Pressure Air Temp Water Temp Dewpoint Dewpoint Depression Visibility Wind Speed Wind Dir Waves Ship Positions

CMA CGM Castilla

Last reported at 2015-Mar-27 07:03 UTC. Time now 2015-Mar-29 01:08 UTC.
Position N 31°28' E 031°46'.

Length 194 m; beam 28.2 m; draft 11.5 m.

Type: Ship (hazmat cat A). MMSI: 538090285.

Date/timePositionNaut miles runAvg speedWind from/ knotsBaromVisibWave heightAir tempDewpointWater temp
2015-Mar-27 07:03N 31°28' E 031°46'4 7.8
2015-Mar-27 06:33N 31°32' E 031°46'5 4.6
2015-Mar-27 05:21N 31°37' E 031°48'1 1.1
2015-Mar-27 04:33N 31°37' E 031°49'6 6.1
2015-Mar-27 03:33N 31°41' E 031°44'1515.2
2015-Mar-27 02:33N 31°53' E 031°33'1514.8
2015-Mar-27 01:34N 32°04' E 031°21'1717.0
2015-Mar-27 00:33N 32°17' E 031°09'2517.3
2015-Mar-26 23:07N 32°36' E 030°49'1017.2
2015-Mar-26 22:33N 32°43' E 030°42'38017.7
2015-Mar-26 01:04N 37°35' E 025°44'1019.1
2015-Mar-26 00:33N 37°42' E 025°35'13419.0
2015-Mar-25 17:30N 39°36' E 024°05'233 6.0
2015-Mar-24 02:32N 40°55' E 028°52'27 1.8
2015-Mar-23 11:15N 41°20' E 029°05'6 2.2
2015-Mar-23 08:28N 41°25' E 029°09'1313.9
2015-Mar-23 07:33N 41°30' E 029°25'27915.4
2015-Mar-22 13:30N 43°34' E 035°03'1515.5
2015-Mar-22 12:31N 43°41' E 035°22'2015.7
2015-Mar-22 11:13N 43°50' E 035°47'1015.6
2015-Mar-22 10:33N 43°55' E 035°59'1615.5
2015-Mar-22 09:32N 44°03' E 036°18'5315.8
2015-Mar-22 06:09N 44°26' E 037°25'1316.4
2015-Mar-22 05:23N 44°32' E 037°41'1112.4
2015-Mar-22 04:30N 44°41' E 037°50'2 0.9
2015-Mar-22 02:05N 44°43' E 037°49'1 0.0
2015-Mar-21 08:31N 44°43' E 037°48'7 7.4
2015-Mar-21 07:32N 44°36' E 037°52'1613.5
2015-Mar-21 06:22N 44°24' E 037°36'1 0.4
2015-Mar-21 04:26N 44°24' E 037°37'10610.8
2015-Mar-20 18:33N 44°15' E 035°09'1919.3
2015-Mar-20 17:33N 44°15' E 034°42'2019.6
2015-Mar-20 16:33N 44°15' E 034°14'286 5.6
2015-Mar-18 13:33N 41°16' E 029°10'  
Track history (hours):
 
Tides and Currents Weather Stations Pressure Air Temp Water Temp Dewpoint Dewpoint Depression Visibility Wind Speed Wind Dir Waves Ship Positions

CMA CGM Castilla

Last reported at 2015-Mar-27 07:03 UTC. Time now 2015-Mar-29 01:08 UTC.
Position N 31°28' E 031°46'.

Length 194 m; beam 28.2 m; draft 11.5 m.

Type: Ship (hazmat cat A). MMSI: 538090285.

Date/timePositionNaut miles runAvg speedWind from/ knotsBaromVisibWave heightAir tempDewpointWater temp
2015-Mar-27 07:03N 31°28' E 031°46'4 7.8
2015-Mar-27 06:33N 31°32' E 031°46'5 4.6
2015-Mar-27 05:21N 31°37' E 031°48'1 1.1
2015-Mar-27 04:33N 31°37' E 031°49'6 6.1
2015-Mar-27 03:33N 31°41' E 031°44'1515.2
2015-Mar-27 02:33N 31°53' E 031°33'1514.8
2015-Mar-27 01:34N 32°04' E 031°21'1717.0
2015-Mar-27 00:33N 32°17' E 031°09'2517.3
2015-Mar-26 23:07N 32°36' E 030°49'1017.2
2015-Mar-26 22:33N 32°43' E 030°42'38017.7
2015-Mar-26 01:04N 37°35' E 025°44'1019.1
2015-Mar-26 00:33N 37°42' E 025°35'13419.0
2015-Mar-25 17:30N 39°36' E 024°05'233 6.0
2015-Mar-24 02:32N 40°55' E 028°52'27 1.8
2015-Mar-23 11:15N 41°20' E 029°05'6 2.2
2015-Mar-23 08:28N 41°25' E 029°09'1313.9
2015-Mar-23 07:33N 41°30' E 029°25'27915.4
2015-Mar-22 13:30N 43°34' E 035°03'1515.5
2015-Mar-22 12:31N 43°41' E 035°22'2015.7
2015-Mar-22 11:13N 43°50' E 035°47'1015.6
2015-Mar-22 10:33N 43°55' E 035°59'1615.5
2015-Mar-22 09:32N 44°03' E 036°18'5315.8
2015-Mar-22 06:09N 44°26' E 037°25'1316.4
2015-Mar-22 05:23N 44°32' E 037°41'1112.4
2015-Mar-22 04:30N 44°41' E 037°50'2 0.9
2015-Mar-22 02:05N 44°43' E 037°49'1 0.0
2015-Mar-21 08:31N 44°43' E 037°48'7 7.4
2015-Mar-21 07:32N 44°36' E 037°52'1613.5
2015-Mar-21 06:22N 44°24' E 037°36'1 0.4
2015-Mar-21 04:26N 44°24' E 037°37'10610.8
2015-Mar-20 18:33N 44°15' E 035°09'1919.3
2015-Mar-20 17:33N 44°15' E 034°42'2019.6
2015-Mar-20 16:33N 44°15' E 034°14'286 5.6
2015-Mar-18 13:33N 41°16' E 029°10'  

Dump ship's entire track history